sensor_id;sensor_type;location;lat;lon;timestamp;P1;durP1;ratioP1;P2;durP2;ratioP2
76107;SDS011;64834;52.516;10.528;2023-09-30T00:02:21;8.25;;;2.47;;
76107;SDS011;64834;52.516;10.528;2023-09-30T00:04:47;7.28;;;2.38;;
76107;SDS011;64834;52.516;10.528;2023-09-30T00:07:12;8.02;;;2.40;;
76107;SDS011;64834;52.516;10.528;2023-09-30T00:09:38;9.10;;;2.58;;
76107;SDS011;64834;52.516;10.528;2023-09-30T00:12:03;11.80;;;2.40;;
76107;SDS011;64834;52.516;10.528;2023-09-30T00:14:29;10.80;;;2.65;;
76107;SDS011;64834;52.516;10.528;2023-09-30T00:16:54;12.38;;;2.45;;
76107;SDS011;64834;52.516;10.528;2023-09-30T00:19:20;6.63;;;2.50;;
76107;SDS011;64834;52.516;10.528;2023-09-30T00:21:47;8.93;;;2.95;;
76107;SDS011;64834;52.516;10.528;2023-09-30T00:24:13;11.07;;;2.35;;
76107;SDS011;64834;52.516;10.528;2023-09-30T00:26:38;10.27;;;2.53;;
76107;SDS011;64834;52.516;10.528;2023-09-30T00:29:04;10.27;;;2.70;;
76107;SDS011;64834;52.516;10.528;2023-09-30T00:31:30;11.65;;;2.63;;
76107;SDS011;64834;52.516;10.528;2023-09-30T00:33:55;14.35;;;2.90;;
76107;SDS011;64834;52.516;10.528;2023-09-30T00:36:20;9.07;;;2.80;;
76107;SDS011;64834;52.516;10.528;2023-09-30T00:38:46;12.23;;;2.72;;
76107;SDS011;64834;52.516;10.528;2023-09-30T00:41:11;9.43;;;2.40;;
76107;SDS011;64834;52.516;10.528;2023-09-30T00:43:36;10.70;;;2.42;;
76107;SDS011;64834;52.516;10.528;2023-09-30T00:46:22;7.00;;;2.65;;
76107;SDS011;64834;52.516;10.528;2023-09-30T00:48:52;11.82;;;2.35;;
76107;SDS011;64834;52.516;10.528;2023-09-30T00:51:18;8.15;;;2.83;;
76107;SDS011;64834;52.516;10.528;2023-09-30T00:53:44;12.38;;;2.33;;
76107;SDS011;64834;52.516;10.528;2023-09-30T00:56:09;6.22;;;2.22;;
76107;SDS011;64834;52.516;10.528;2023-09-30T00:58:35;11.30;;;3.50;;
76107;SDS011;64834;52.516;10.528;2023-09-30T01:01:03;7.38;;;2.63;;
76107;SDS011;64834;52.516;10.528;2023-09-30T01:03:29;9.90;;;2.70;;
76107;SDS011;64834;52.516;10.528;2023-09-30T01:05:54;9.93;;;2.40;;
76107;SDS011;64834;52.516;10.528;2023-09-30T01:08:20;12.23;;;2.63;;
76107;SDS011;64834;52.516;10.528;2023-09-30T01:10:46;10.93;;;2.60;;
76107;SDS011;64834;52.516;10.528;2023-09-30T01:13:12;8.90;;;2.20;;
76107;SDS011;64834;52.516;10.528;2023-09-30T01:15:37;9.30;;;2.58;;
76107;SDS011;64834;52.516;10.528;2023-09-30T01:18:03;15.60;;;2.80;;
76107;SDS011;64834;52.516;10.528;2023-09-30T01:20:29;9.15;;;2.45;;
76107;SDS011;64834;52.516;10.528;2023-09-30T01:22:54;10.02;;;2.60;;
76107;SDS011;64834;52.516;10.528;2023-09-30T01:25:22;9.93;;;3.08;;
76107;SDS011;64834;52.516;10.528;2023-09-30T01:27:47;11.48;;;3.03;;
76107;SDS011;64834;52.516;10.528;2023-09-30T01:30:12;15.25;;;2.90;;
76107;SDS011;64834;52.516;10.528;2023-09-30T01:32:38;9.70;;;2.70;;
76107;SDS011;64834;52.516;10.528;2023-09-30T01:35:04;12.95;;;2.97;;
76107;SDS011;64834;52.516;10.528;2023-09-30T01:37:30;12.55;;;3.20;;
76107;SDS011;64834;52.516;10.528;2023-09-30T01:39:55;10.15;;;2.58;;
76107;SDS011;64834;52.516;10.528;2023-09-30T01:42:21;10.00;;;2.65;;
76107;SDS011;64834;52.516;10.528;2023-09-30T01:44:46;9.82;;;2.80;;
76107;SDS011;64834;52.516;10.528;2023-09-30T01:47:11;14.02;;;2.47;;
76107;SDS011;64834;52.516;10.528;2023-09-30T01:49:37;12.93;;;2.88;;
76107;SDS011;64834;52.516;10.528;2023-09-30T01:52:02;7.95;;;2.30;;
76107;SDS011;64834;52.516;10.528;2023-09-30T01:54:28;8.45;;;2.75;;
76107;SDS011;64834;52.516;10.528;2023-09-30T01:56:53;11.48;;;2.75;;
76107;SDS011;64834;52.516;10.528;2023-09-30T01:59:18;9.70;;;2.05;;
76107;SDS011;64834;52.516;10.528;2023-09-30T02:01:44;11.35;;;2.60;;
76107;SDS011;64834;52.516;10.528;2023-09-30T02:04:11;14.10;;;3.38;;
76107;SDS011;64834;52.516;10.528;2023-09-30T02:06:37;14.65;;;3.15;;
76107;SDS011;64834;52.516;10.528;2023-09-30T02:09:03;8.20;;;2.20;;
76107;SDS011;64834;52.516;10.528;2023-09-30T02:11:29;11.88;;;2.50;;
76107;SDS011;64834;52.516;10.528;2023-09-30T02:13:55;11.50;;;2.95;;
76107;SDS011;64834;52.516;10.528;2023-09-30T02:16:20;8.10;;;2.70;;
76107;SDS011;64834;52.516;10.528;2023-09-30T02:18:45;12.40;;;2.88;;
76107;SDS011;64834;52.516;10.528;2023-09-30T02:21:11;8.82;;;2.75;;
76107;SDS011;64834;52.516;10.528;2023-09-30T02:23:36;11.95;;;2.42;;
76107;SDS011;64834;52.516;10.528;2023-09-30T02:26:02;11.02;;;2.60;;
76107;SDS011;64834;52.516;10.528;2023-09-30T02:28:28;13.30;;;3.03;;
76107;SDS011;64834;52.516;10.528;2023-09-30T02:30:53;10.27;;;2.58;;
76107;SDS011;64834;52.516;10.528;2023-09-30T02:33:18;13.65;;;2.72;;
76107;SDS011;64834;52.516;10.528;2023-09-30T02:35:44;9.15;;;2.22;;
76107;SDS011;64834;52.516;10.528;2023-09-30T02:38:10;11.80;;;2.22;;
76107;SDS011;64834;52.516;10.528;2023-09-30T02:40:36;9.65;;;2.65;;
76107;SDS011;64834;52.516;10.528;2023-09-30T02:43:02;10.95;;;2.63;;
76107;SDS011;64834;52.516;10.528;2023-09-30T02:45:27;11.95;;;2.30;;
76107;SDS011;64834;52.516;10.528;2023-09-30T02:47:52;10.85;;;2.40;;
76107;SDS011;64834;52.516;10.528;2023-09-30T02:50:18;10.63;;;2.90;;
76107;SDS011;64834;52.516;10.528;2023-09-30T02:52:43;9.70;;;2.28;;
76107;SDS011;64834;52.516;10.528;2023-09-30T02:55:09;10.15;;;2.67;;
76107;SDS011;64834;52.516;10.528;2023-09-30T02:57:35;10.82;;;2.90;;
76107;SDS011;64834;52.516;10.528;2023-09-30T03:00:04;12.32;;;2.20;;
76107;SDS011;64834;52.516;10.528;2023-09-30T03:02:49;10.82;;;2.33;;
76107;SDS011;64834;52.516;10.528;2023-09-30T03:05:15;9.85;;;2.78;;
76107;SDS011;64834;52.516;10.528;2023-09-30T03:07:41;11.52;;;2.58;;
76107;SDS011;64834;52.516;10.528;2023-09-30T03:10:07;9.65;;;2.42;;
76107;SDS011;64834;52.516;10.528;2023-09-30T03:12:34;8.95;;;2.50;;
76107;SDS011;64834;52.516;10.528;2023-09-30T03:14:59;12.50;;;2.63;;
76107;SDS011;64834;52.516;10.528;2023-09-30T03:17:29;15.55;;;2.45;;
76107;SDS011;64834;52.516;10.528;2023-09-30T03:19:54;11.02;;;2.45;;
76107;SDS011;64834;52.516;10.528;2023-09-30T03:22:22;13.23;;;2.65;;
76107;SDS011;64834;52.516;10.528;2023-09-30T03:24:47;10.68;;;2.17;;
76107;SDS011;64834;52.516;10.528;2023-09-30T03:27:13;10.27;;;2.60;;
76107;SDS011;64834;52.516;10.528;2023-09-30T03:29:39;12.15;;;3.03;;
76107;SDS011;64834;52.516;10.528;2023-09-30T03:32:05;7.57;;;2.95;;
76107;SDS011;64834;52.516;10.528;2023-09-30T03:34:30;9.25;;;2.10;;
76107;SDS011;64834;52.516;10.528;2023-09-30T03:36:56;7.43;;;2.50;;
76107;SDS011;64834;52.516;10.528;2023-09-30T03:41:52;12.60;;;2.72;;
76107;SDS011;64834;52.516;10.528;2023-09-30T03:44:21;8.00;;;2.35;;
76107;SDS011;64834;52.516;10.528;2023-09-30T03:46:48;12.10;;;2.67;;
76107;SDS011;64834;52.516;10.528;2023-09-30T03:49:13;11.57;;;2.33;;
76107;SDS011;64834;52.516;10.528;2023-09-30T03:51:38;15.77;;;3.08;;
76107;SDS011;64834;52.516;10.528;2023-09-30T03:54:04;11.85;;;2.80;;
76107;SDS011;64834;52.516;10.528;2023-09-30T03:56:31;11.55;;;2.63;;
76107;SDS011;64834;52.516;10.528;2023-09-30T03:58:56;9.98;;;2.40;;
76107;SDS011;64834;52.516;10.528;2023-09-30T04:01:21;10.07;;;2.63;;
76107;SDS011;64834;52.516;10.528;2023-09-30T04:03:48;13.32;;;2.90;;
76107;SDS011;64834;52.516;10.528;2023-09-30T04:06:14;11.35;;;3.53;;
76107;SDS011;64834;52.516;10.528;2023-09-30T04:08:39;8.63;;;3.55;;
76107;SDS011;64834;52.516;10.528;2023-09-30T04:11:05;9.77;;;2.47;;
76107;SDS011;64834;52.516;10.528;2023-09-30T04:13:31;8.82;;;2.63;;
76107;SDS011;64834;52.516;10.528;2023-09-30T04:15:56;11.27;;;2.53;;
76107;SDS011;64834;52.516;10.528;2023-09-30T04:18:24;12.32;;;3.10;;
76107;SDS011;64834;52.516;10.528;2023-09-30T04:20:54;14.32;;;2.72;;
76107;SDS011;64834;52.516;10.528;2023-09-30T04:23:19;9.50;;;3.03;;
76107;SDS011;64834;52.516;10.528;2023-09-30T04:25:45;11.48;;;2.50;;
76107;SDS011;64834;52.516;10.528;2023-09-30T04:28:11;7.68;;;3.05;;
76107;SDS011;64834;52.516;10.528;2023-09-30T04:30:38;13.63;;;2.55;;
76107;SDS011;64834;52.516;10.528;2023-09-30T04:33:03;14.18;;;2.60;;
76107;SDS011;64834;52.516;10.528;2023-09-30T04:35:29;10.73;;;2.75;;
76107;SDS011;64834;52.516;10.528;2023-09-30T04:37:55;8.23;;;2.75;;
76107;SDS011;64834;52.516;10.528;2023-09-30T04:40:22;11.55;;;2.90;;
76107;SDS011;64834;52.516;10.528;2023-09-30T04:42:48;9.23;;;2.40;;
76107;SDS011;64834;52.516;10.528;2023-09-30T04:45:13;12.02;;;2.45;;
76107;SDS011;64834;52.516;10.528;2023-09-30T04:47:42;9.93;;;2.67;;
76107;SDS011;64834;52.516;10.528;2023-09-30T04:50:09;13.90;;;2.70;;
76107;SDS011;64834;52.516;10.528;2023-09-30T04:52:36;9.30;;;3.00;;
76107;SDS011;64834;52.516;10.528;2023-09-30T04:55:02;13.43;;;2.70;;
76107;SDS011;64834;52.516;10.528;2023-09-30T04:57:30;11.85;;;3.15;;
76107;SDS011;64834;52.516;10.528;2023-09-30T04:59:56;11.23;;;2.45;;
76107;SDS011;64834;52.516;10.528;2023-09-30T05:02:23;14.02;;;3.15;;
76107;SDS011;64834;52.516;10.528;2023-09-30T05:04:48;15.27;;;3.05;;
76107;SDS011;64834;52.516;10.528;2023-09-30T05:07:14;10.88;;;3.17;;
76107;SDS011;64834;52.516;10.528;2023-09-30T05:09:39;11.27;;;2.95;;
76107;SDS011;64834;52.516;10.528;2023-09-30T05:12:04;9.30;;;2.53;;
76107;SDS011;64834;52.516;10.528;2023-09-30T05:14:31;12.25;;;3.10;;
76107;SDS011;64834;52.516;10.528;2023-09-30T05:16:56;10.98;;;2.80;;
76107;SDS011;64834;52.516;10.528;2023-09-30T05:19:21;12.77;;;2.75;;
76107;SDS011;64834;52.516;10.528;2023-09-30T05:21:47;11.65;;;2.63;;
76107;SDS011;64834;52.516;10.528;2023-09-30T05:24:12;12.73;;;2.95;;
76107;SDS011;64834;52.516;10.528;2023-09-30T05:26:38;10.10;;;2.80;;
76107;SDS011;64834;52.516;10.528;2023-09-30T05:29:03;9.02;;;2.63;;
76107;SDS011;64834;52.516;10.528;2023-09-30T05:31:28;9.60;;;3.03;;
76107;SDS011;64834;52.516;10.528;2023-09-30T05:33:54;9.32;;;2.67;;
76107;SDS011;64834;52.516;10.528;2023-09-30T05:36:20;8.25;;;2.35;;
76107;SDS011;64834;52.516;10.528;2023-09-30T05:38:46;9.45;;;2.35;;
76107;SDS011;64834;52.516;10.528;2023-09-30T05:41:13;11.90;;;2.95;;
76107;SDS011;64834;52.516;10.528;2023-09-30T05:43:39;9.30;;;2.58;;
76107;SDS011;64834;52.516;10.528;2023-09-30T05:46:05;12.95;;;3.03;;
76107;SDS011;64834;52.516;10.528;2023-09-30T05:48:31;6.85;;;2.67;;
76107;SDS011;64834;52.516;10.528;2023-09-30T05:50:57;14.13;;;3.38;;
76107;SDS011;64834;52.516;10.528;2023-09-30T05:53:22;9.75;;;2.70;;
76107;SDS011;64834;52.516;10.528;2023-09-30T05:55:47;7.93;;;2.45;;
76107;SDS011;64834;52.516;10.528;2023-09-30T05:58:14;10.57;;;2.55;;
76107;SDS011;64834;52.516;10.528;2023-09-30T06:00:41;8.00;;;2.38;;
76107;SDS011;64834;52.516;10.528;2023-09-30T06:03:07;8.45;;;2.63;;
76107;SDS011;64834;52.516;10.528;2023-09-30T06:05:33;9.40;;;2.65;;
76107;SDS011;64834;52.516;10.528;2023-09-30T06:07:59;10.68;;;2.85;;
76107;SDS011;64834;52.516;10.528;2023-09-30T06:10:27;7.25;;;2.20;;
76107;SDS011;64834;52.516;10.528;2023-09-30T06:12:53;9.52;;;2.58;;
76107;SDS011;64834;52.516;10.528;2023-09-30T06:15:20;8.75;;;1.98;;
76107;SDS011;64834;52.516;10.528;2023-09-30T06:17:51;9.20;;;2.03;;
76107;SDS011;64834;52.516;10.528;2023-09-30T06:20:18;9.98;;;2.88;;
76107;SDS011;64834;52.516;10.528;2023-09-30T06:22:47;9.02;;;2.60;;
76107;SDS011;64834;52.516;10.528;2023-09-30T06:25:17;11.23;;;3.92;;
76107;SDS011;64834;52.516;10.528;2023-09-30T06:27:43;8.52;;;2.30;;
76107;SDS011;64834;52.516;10.528;2023-09-30T06:30:10;5.28;;;2.00;;
76107;SDS011;64834;52.516;10.528;2023-09-30T06:32:36;7.80;;;2.20;;
76107;SDS011;64834;52.516;10.528;2023-09-30T06:35:02;6.55;;;2.55;;
76107;SDS011;64834;52.516;10.528;2023-09-30T06:37:28;9.88;;;3.22;;
76107;SDS011;64834;52.516;10.528;2023-09-30T06:39:54;8.45;;;3.33;;
76107;SDS011;64834;52.516;10.528;2023-09-30T06:42:21;8.18;;;2.45;;
76107;SDS011;64834;52.516;10.528;2023-09-30T06:44:46;12.05;;;2.75;;
76107;SDS011;64834;52.516;10.528;2023-09-30T06:47:12;9.93;;;2.70;;
76107;SDS011;64834;52.516;10.528;2023-09-30T06:49:37;7.32;;;2.30;;
76107;SDS011;64834;52.516;10.528;2023-09-30T06:52:04;8.18;;;2.78;;
76107;SDS011;64834;52.516;10.528;2023-09-30T06:54:30;13.93;;;2.90;;
76107;SDS011;64834;52.516;10.528;2023-09-30T06:56:56;9.05;;;2.50;;
76107;SDS011;64834;52.516;10.528;2023-09-30T06:59:21;7.45;;;2.10;;
76107;SDS011;64834;52.516;10.528;2023-09-30T07:01:47;11.48;;;3.53;;
76107;SDS011;64834;52.516;10.528;2023-09-30T07:04:12;7.07;;;2.42;;
76107;SDS011;64834;52.516;10.528;2023-09-30T07:06:37;8.23;;;2.40;;
76107;SDS011;64834;52.516;10.528;2023-09-30T07:09:03;7.63;;;2.78;;
76107;SDS011;64834;52.516;10.528;2023-09-30T07:11:29;7.85;;;2.78;;
76107;SDS011;64834;52.516;10.528;2023-09-30T07:13:58;7.93;;;2.47;;
76107;SDS011;64834;52.516;10.528;2023-09-30T07:16:23;10.20;;;2.65;;
76107;SDS011;64834;52.516;10.528;2023-09-30T07:18:49;10.70;;;2.65;;
76107;SDS011;64834;52.516;10.528;2023-09-30T07:21:15;9.98;;;2.78;;
76107;SDS011;64834;52.516;10.528;2023-09-30T07:23:41;8.88;;;2.38;;
76107;SDS011;64834;52.516;10.528;2023-09-30T07:26:07;8.02;;;2.33;;
76107;SDS011;64834;52.516;10.528;2023-09-30T07:28:32;7.57;;;2.80;;
76107;SDS011;64834;52.516;10.528;2023-09-30T07:30:58;8.25;;;2.20;;
76107;SDS011;64834;52.516;10.528;2023-09-30T07:33:24;10.30;;;2.95;;
76107;SDS011;64834;52.516;10.528;2023-09-30T07:35:49;8.10;;;2.40;;
76107;SDS011;64834;52.516;10.528;2023-09-30T07:38:14;7.05;;;2.22;;
76107;SDS011;64834;52.516;10.528;2023-09-30T07:40:40;4.93;;;2.28;;
76107;SDS011;64834;52.516;10.528;2023-09-30T07:43:05;9.02;;;2.53;;
76107;SDS011;64834;52.516;10.528;2023-09-30T07:45:30;9.13;;;2.50;;
76107;SDS011;64834;52.516;10.528;2023-09-30T07:47:56;8.40;;;2.08;;
76107;SDS011;64834;52.516;10.528;2023-09-30T07:50:23;12.93;;;2.47;;
76107;SDS011;64834;52.516;10.528;2023-09-30T07:52:48;11.18;;;3.30;;
76107;SDS011;64834;52.516;10.528;2023-09-30T07:55:14;11.60;;;2.83;;
76107;SDS011;64834;52.516;10.528;2023-09-30T07:57:40;5.75;;;2.30;;
76107;SDS011;64834;52.516;10.528;2023-09-30T08:02:34;7.40;;;2.00;;
76107;SDS011;64834;52.516;10.528;2023-09-30T08:04:59;7.85;;;2.40;;
76107;SDS011;64834;52.516;10.528;2023-09-30T08:07:25;8.60;;;2.92;;
76107;SDS011;64834;52.516;10.528;2023-09-30T08:09:51;9.73;;;1.80;;
76107;SDS011;64834;52.516;10.528;2023-09-30T08:12:16;6.35;;;2.10;;
76107;SDS011;64834;52.516;10.528;2023-09-30T08:14:42;6.90;;;2.08;;
76107;SDS011;64834;52.516;10.528;2023-09-30T08:17:09;8.93;;;2.05;;
76107;SDS011;64834;52.516;10.528;2023-09-30T08:19:35;5.50;;;1.83;;
76107;SDS011;64834;52.516;10.528;2023-09-30T08:22:00;10.82;;;2.10;;
76107;SDS011;64834;52.516;10.528;2023-09-30T08:24:28;7.65;;;1.80;;
76107;SDS011;64834;52.516;10.528;2023-09-30T08:26:53;7.05;;;2.03;;
76107;SDS011;64834;52.516;10.528;2023-09-30T08:29:20;7.72;;;2.03;;
76107;SDS011;64834;52.516;10.528;2023-09-30T08:31:46;10.10;;;2.22;;
76107;SDS011;64834;52.516;10.528;2023-09-30T08:34:11;8.85;;;1.98;;
76107;SDS011;64834;52.516;10.528;2023-09-30T08:36:39;8.65;;;2.38;;
76107;SDS011;64834;52.516;10.528;2023-09-30T08:39:05;12.10;;;3.03;;
76107;SDS011;64834;52.516;10.528;2023-09-30T08:41:32;5.55;;;1.25;;
76107;SDS011;64834;52.516;10.528;2023-09-30T08:44:01;9.07;;;1.90;;
76107;SDS011;64834;52.516;10.528;2023-09-30T08:46:31;10.57;;;2.08;;
76107;SDS011;64834;52.516;10.528;2023-09-30T08:48:59;9.25;;;2.80;;
76107;SDS011;64834;52.516;10.528;2023-09-30T08:51:27;9.55;;;1.90;;
76107;SDS011;64834;52.516;10.528;2023-09-30T08:53:53;4.22;;;1.30;;
76107;SDS011;64834;52.516;10.528;2023-09-30T08:56:21;6.40;;;1.55;;
76107;SDS011;64834;52.516;10.528;2023-09-30T08:58:51;6.93;;;1.55;;
76107;SDS011;64834;52.516;10.528;2023-09-30T09:01:18;7.93;;;2.42;;
76107;SDS011;64834;52.516;10.528;2023-09-30T09:03:44;6.32;;;1.95;;
76107;SDS011;64834;52.516;10.528;2023-09-30T09:06:09;8.77;;;1.73;;
76107;SDS011;64834;52.516;10.528;2023-09-30T09:08:34;12.93;;;2.40;;
76107;SDS011;64834;52.516;10.528;2023-09-30T09:11:00;8.50;;;1.67;;
76107;SDS011;64834;52.516;10.528;2023-09-30T09:13:26;6.30;;;1.92;;
76107;SDS011;64834;52.516;10.528;2023-09-30T09:16:07;8.98;;;1.60;;
76107;SDS011;64834;52.516;10.528;2023-09-30T09:18:35;9.13;;;1.60;;
76107;SDS011;64834;52.516;10.528;2023-09-30T09:21:14;4.57;;;1.40;;
76107;SDS011;64834;52.516;10.528;2023-09-30T09:23:41;6.90;;;1.50;;
76107;SDS011;64834;52.516;10.528;2023-09-30T09:26:09;9.52;;;2.03;;
76107;SDS011;64834;52.516;10.528;2023-09-30T09:28:35;6.78;;;1.65;;
76107;SDS011;64834;52.516;10.528;2023-09-30T09:31:26;4.55;;;1.55;;
76107;SDS011;64834;52.516;10.528;2023-09-30T09:33:53;7.63;;;1.52;;
76107;SDS011;64834;52.516;10.528;2023-09-30T09:36:19;7.03;;;2.00;;
76107;SDS011;64834;52.516;10.528;2023-09-30T09:38:48;10.38;;;1.38;;
76107;SDS011;64834;52.516;10.528;2023-09-30T09:41:17;6.63;;;1.45;;
76107;SDS011;64834;52.516;10.528;2023-09-30T09:43:43;5.45;;;1.30;;
76107;SDS011;64834;52.516;10.528;2023-09-30T09:46:09;9.90;;;1.83;;
76107;SDS011;64834;52.516;10.528;2023-09-30T09:48:35;7.53;;;1.73;;
76107;SDS011;64834;52.516;10.528;2023-09-30T09:51:02;5.53;;;1.23;;
76107;SDS011;64834;52.516;10.528;2023-09-30T09:53:31;6.18;;;1.55;;
76107;SDS011;64834;52.516;10.528;2023-09-30T09:56:01;6.65;;;1.40;;
76107;SDS011;64834;52.516;10.528;2023-09-30T09:58:28;7.05;;;1.27;;
76107;SDS011;64834;52.516;10.528;2023-09-30T10:00:58;7.68;;;1.60;;
76107;SDS011;64834;52.516;10.528;2023-09-30T10:03:26;5.72;;;1.30;;
76107;SDS011;64834;52.516;10.528;2023-09-30T10:05:51;13.07;;;2.03;;
76107;SDS011;64834;52.516;10.528;2023-09-30T10:08:17;5.82;;;1.35;;
76107;SDS011;64834;52.516;10.528;2023-09-30T10:10:45;10.20;;;1.48;;
76107;SDS011;64834;52.516;10.528;2023-09-30T10:19:07;6.35;;;1.65;;
76107;SDS011;64834;52.516;10.528;2023-09-30T10:21:33;6.75;;;1.55;;
76107;SDS011;64834;52.516;10.528;2023-09-30T10:35:16;5.50;;;1.42;;
76107;SDS011;64834;52.516;10.528;2023-09-30T10:37:42;6.70;;;1.60;;
76107;SDS011;64834;52.516;10.528;2023-09-30T10:40:08;5.88;;;1.60;;
76107;SDS011;64834;52.516;10.528;2023-09-30T10:50:49;5.90;;;1.45;;
76107;SDS011;64834;52.516;10.528;2023-09-30T10:53:16;5.60;;;1.17;;
76107;SDS011;64834;52.516;10.528;2023-09-30T10:55:43;6.35;;;1.20;;
76107;SDS011;64834;52.516;10.528;2023-09-30T10:58:10;3.63;;;0.80;;
76107;SDS011;64834;52.516;10.528;2023-09-30T11:00:35;7.72;;;1.35;;
76107;SDS011;64834;52.516;10.528;2023-09-30T11:03:01;4.13;;;1.00;;
76107;SDS011;64834;52.516;10.528;2023-09-30T11:05:27;6.28;;;1.30;;
76107;SDS011;64834;52.516;10.528;2023-09-30T11:07:53;5.20;;;1.20;;
76107;SDS011;64834;52.516;10.528;2023-09-30T11:10:23;5.97;;;1.02;;
76107;SDS011;64834;52.516;10.528;2023-09-30T11:12:55;4.28;;;1.10;;
76107;SDS011;64834;52.516;10.528;2023-09-30T11:15:22;1.83;;;0.82;;
76107;SDS011;64834;52.516;10.528;2023-09-30T11:17:48;5.90;;;1.02;;
76107;SDS011;64834;52.516;10.528;2023-09-30T11:20:13;6.80;;;1.77;;
76107;SDS011;64834;52.516;10.528;2023-09-30T11:25:06;4.07;;;1.00;;
76107;SDS011;64834;52.516;10.528;2023-09-30T11:27:32;4.90;;;1.25;;
76107;SDS011;64834;52.516;10.528;2023-09-30T11:29:58;5.55;;;1.35;;
76107;SDS011;64834;52.516;10.528;2023-09-30T11:32:27;6.60;;;1.58;;
76107;SDS011;64834;52.516;10.528;2023-09-30T11:34:54;3.65;;;1.00;;
76107;SDS011;64834;52.516;10.528;2023-09-30T11:37:19;2.17;;;0.93;;
76107;SDS011;64834;52.516;10.528;2023-09-30T11:39:46;3.63;;;1.00;;
76107;SDS011;64834;52.516;10.528;2023-09-30T11:42:16;6.88;;;1.10;;
76107;SDS011;64834;52.516;10.528;2023-09-30T11:44:48;4.75;;;0.90;;
76107;SDS011;64834;52.516;10.528;2023-09-30T11:47:15;5.30;;;1.42;;
76107;SDS011;64834;52.516;10.528;2023-09-30T11:49:41;3.85;;;1.25;;
76107;SDS011;64834;52.516;10.528;2023-09-30T11:54:41;3.08;;;0.85;;
76107;SDS011;64834;52.516;10.528;2023-09-30T11:57:11;3.83;;;0.85;;
76107;SDS011;64834;52.516;10.528;2023-09-30T11:59:40;6.13;;;1.42;;
76107;SDS011;64834;52.516;10.528;2023-09-30T12:02:06;2.40;;;0.90;;
76107;SDS011;64834;52.516;10.528;2023-09-30T12:04:32;4.47;;;0.95;;
76107;SDS011;64834;52.516;10.528;2023-09-30T12:06:59;4.60;;;1.02;;
76107;SDS011;64834;52.516;10.528;2023-09-30T12:09:25;6.45;;;1.05;;
76107;SDS011;64834;52.516;10.528;2023-09-30T12:11:54;5.90;;;1.10;;
76107;SDS011;64834;52.516;10.528;2023-09-30T12:14:20;4.68;;;1.05;;
76107;SDS011;64834;52.516;10.528;2023-09-30T12:16:46;3.72;;;1.05;;
76107;SDS011;64834;52.516;10.528;2023-09-30T12:19:19;4.45;;;0.95;;
76107;SDS011;64834;52.516;10.528;2023-09-30T12:21:45;3.70;;;1.00;;
76107;SDS011;64834;52.516;10.528;2023-09-30T12:24:13;4.40;;;0.90;;
76107;SDS011;64834;52.516;10.528;2023-09-30T12:26:48;3.65;;;0.98;;
76107;SDS011;64834;52.516;10.528;2023-09-30T12:29:14;5.93;;;1.42;;
76107;SDS011;64834;52.516;10.528;2023-09-30T12:31:42;3.63;;;1.08;;
76107;SDS011;64834;52.516;10.528;2023-09-30T12:34:09;2.38;;;0.70;;
76107;SDS011;64834;52.516;10.528;2023-09-30T12:36:34;3.03;;;1.00;;
76107;SDS011;64834;52.516;10.528;2023-09-30T12:38:59;2.78;;;0.70;;
76107;SDS011;64834;52.516;10.528;2023-09-30T12:41:24;4.18;;;0.95;;
76107;SDS011;64834;52.516;10.528;2023-09-30T12:43:50;4.25;;;1.00;;
76107;SDS011;64834;52.516;10.528;2023-09-30T12:46:15;4.13;;;1.17;;
76107;SDS011;64834;52.516;10.528;2023-09-30T12:48:41;2.63;;;0.70;;
76107;SDS011;64834;52.516;10.528;2023-09-30T12:51:07;6.45;;;0.85;;
76107;SDS011;64834;52.516;10.528;2023-09-30T12:53:35;2.10;;;0.80;;
76107;SDS011;64834;52.516;10.528;2023-09-30T12:56:00;4.40;;;1.38;;
76107;SDS011;64834;52.516;10.528;2023-09-30T12:58:25;5.30;;;1.25;;
76107;SDS011;64834;52.516;10.528;2023-09-30T13:00:53;3.33;;;0.82;;
76107;SDS011;64834;52.516;10.528;2023-09-30T13:03:21;3.00;;;1.02;;
76107;SDS011;64834;52.516;10.528;2023-09-30T13:05:47;5.97;;;1.15;;
76107;SDS011;64834;52.516;10.528;2023-09-30T13:08:12;4.82;;;0.80;;
76107;SDS011;64834;52.516;10.528;2023-09-30T13:10:37;3.65;;;0.93;;
76107;SDS011;64834;52.516;10.528;2023-09-30T13:13:03;3.33;;;1.00;;
76107;SDS011;64834;52.516;10.528;2023-09-30T13:15:28;4.72;;;0.85;;
76107;SDS011;64834;52.516;10.528;2023-09-30T13:17:54;3.35;;;1.50;;
76107;SDS011;64834;52.516;10.528;2023-09-30T13:20:19;4.70;;;1.10;;
76107;SDS011;64834;52.516;10.528;2023-09-30T13:22:45;4.25;;;1.20;;
76107;SDS011;64834;52.516;10.528;2023-09-30T13:25:10;2.13;;;0.90;;
76107;SDS011;64834;52.516;10.528;2023-09-30T13:27:37;2.75;;;0.80;;
76107;SDS011;64834;52.516;10.528;2023-09-30T13:30:06;4.25;;;0.93;;
76107;SDS011;64834;52.516;10.528;2023-09-30T13:32:33;2.58;;;0.98;;
76107;SDS011;64834;52.516;10.528;2023-09-30T13:35:01;13.30;;;7.40;;
76107;SDS011;64834;52.516;10.528;2023-09-30T13:37:32;4.20;;;1.95;;
76107;SDS011;64834;52.516;10.528;2023-09-30T13:39:59;3.75;;;0.93;;
76107;SDS011;64834;52.516;10.528;2023-09-30T13:42:25;6.68;;;1.13;;
76107;SDS011;64834;52.516;10.528;2023-09-30T13:44:51;4.90;;;1.00;;
76107;SDS011;64834;52.516;10.528;2023-09-30T13:47:16;4.15;;;1.00;;
76107;SDS011;64834;52.516;10.528;2023-09-30T13:49:41;4.25;;;1.33;;
76107;SDS011;64834;52.516;10.528;2023-09-30T13:52:07;4.43;;;1.17;;
76107;SDS011;64834;52.516;10.528;2023-09-30T13:54:33;5.15;;;1.35;;
76107;SDS011;64834;52.516;10.528;2023-09-30T13:56:58;6.35;;;1.40;;
76107;SDS011;64834;52.516;10.528;2023-09-30T13:59:24;4.82;;;1.10;;
76107;SDS011;64834;52.516;10.528;2023-09-30T14:01:52;4.25;;;0.80;;
76107;SDS011;64834;52.516;10.528;2023-09-30T14:04:21;2.70;;;0.80;;
76107;SDS011;64834;52.516;10.528;2023-09-30T14:06:46;4.40;;;0.98;;
76107;SDS011;64834;52.516;10.528;2023-09-30T14:09:12;6.05;;;1.30;;
76107;SDS011;64834;52.516;10.528;2023-09-30T14:11:40;5.13;;;1.30;;
76107;SDS011;64834;52.516;10.528;2023-09-30T14:14:06;3.22;;;0.90;;
76107;SDS011;64834;52.516;10.528;2023-09-30T14:16:35;4.10;;;1.23;;
76107;SDS011;64834;52.516;10.528;2023-09-30T14:19:01;4.00;;;0.95;;
76107;SDS011;64834;52.516;10.528;2023-09-30T14:21:26;3.72;;;1.02;;
76107;SDS011;64834;52.516;10.528;2023-09-30T14:23:51;5.45;;;1.30;;
76107;SDS011;64834;52.516;10.528;2023-09-30T14:26:17;2.97;;;1.00;;
76107;SDS011;64834;52.516;10.528;2023-09-30T14:28:42;2.60;;;0.80;;
76107;SDS011;64834;52.516;10.528;2023-09-30T14:31:07;4.05;;;0.70;;
76107;SDS011;64834;52.516;10.528;2023-09-30T14:33:33;5.78;;;1.23;;
76107;SDS011;64834;52.516;10.528;2023-09-30T14:35:59;3.22;;;0.95;;
76107;SDS011;64834;52.516;10.528;2023-09-30T14:38:24;3.42;;;1.00;;
76107;SDS011;64834;52.516;10.528;2023-09-30T14:40:50;4.70;;;0.75;;
76107;SDS011;64834;52.516;10.528;2023-09-30T14:43:16;2.63;;;0.98;;
76107;SDS011;64834;52.516;10.528;2023-09-30T14:45:41;5.03;;;0.98;;
76107;SDS011;64834;52.516;10.528;2023-09-30T14:48:07;3.92;;;0.93;;
76107;SDS011;64834;52.516;10.528;2023-09-30T14:50:36;5.28;;;1.42;;
76107;SDS011;64834;52.516;10.528;2023-09-30T14:53:02;5.40;;;1.00;;
76107;SDS011;64834;52.516;10.528;2023-09-30T14:55:28;6.50;;;1.05;;
76107;SDS011;64834;52.516;10.528;2023-09-30T14:57:54;6.72;;;1.20;;
76107;SDS011;64834;52.516;10.528;2023-09-30T15:00:20;4.90;;;0.82;;
76107;SDS011;64834;52.516;10.528;2023-09-30T15:02:47;1.83;;;0.70;;